sensor_id;sensor_type;location;lat;lon;timestamp;P1;durP1;ratioP1;P2;durP2;ratioP2
39066;SDS011;24821;51.988;6.020;2022-11-20T00:00:24;3.60;;;3.40;;
39066;SDS011;24821;51.988;6.020;2022-11-20T00:02:50;4.17;;;3.53;;
39066;SDS011;24821;51.988;6.020;2022-11-20T00:05:16;5.00;;;4.53;;
39066;SDS011;24821;51.988;6.020;2022-11-20T00:07:41;3.13;;;2.93;;
39066;SDS011;24821;51.988;6.020;2022-11-20T00:10:07;3.80;;;3.53;;
39066;SDS011;24821;51.988;6.020;2022-11-20T00:12:33;4.63;;;4.23;;
39066;SDS011;24821;51.988;6.020;2022-11-20T00:14:59;3.57;;;3.37;;
39066;SDS011;24821;51.988;6.020;2022-11-20T00:17:24;3.97;;;3.73;;
39066;SDS011;24821;51.988;6.020;2022-11-20T00:19:50;6.37;;;3.43;;
39066;SDS011;24821;51.988;6.020;2022-11-20T00:22:16;2.47;;;2.33;;
39066;SDS011;24821;51.988;6.020;2022-11-20T00:24:41;5.37;;;4.43;;
39066;SDS011;24821;51.988;6.020;2022-11-20T00:27:07;4.90;;;4.07;;
39066;SDS011;24821;51.988;6.020;2022-11-20T00:29:32;4.13;;;3.73;;
39066;SDS011;24821;51.988;6.020;2022-11-20T00:31:58;3.43;;;3.13;;
39066;SDS011;24821;51.988;6.020;2022-11-20T00:34:23;6.30;;;3.80;;
39066;SDS011;24821;51.988;6.020;2022-11-20T00:36:49;4.33;;;4.03;;
39066;SDS011;24821;51.988;6.020;2022-11-20T00:39:14;4.30;;;4.00;;
39066;SDS011;24821;51.988;6.020;2022-11-20T00:41:40;4.80;;;4.47;;
39066;SDS011;24821;51.988;6.020;2022-11-20T00:44:05;5.50;;;4.53;;
39066;SDS011;24821;51.988;6.020;2022-11-20T00:46:31;4.20;;;3.90;;
39066;SDS011;24821;51.988;6.020;2022-11-20T00:48:57;3.17;;;2.93;;
39066;SDS011;24821;51.988;6.020;2022-11-20T00:51:23;2.90;;;2.70;;
39066;SDS011;24821;51.988;6.020;2022-11-20T00:53:49;7.60;;;4.53;;
39066;SDS011;24821;51.988;6.020;2022-11-20T00:56:16;4.13;;;3.87;;
39066;SDS011;24821;51.988;6.020;2022-11-20T00:58:44;5.77;;;4.63;;
39066;SDS011;24821;51.988;6.020;2022-11-20T01:01:13;6.33;;;4.60;;
39066;SDS011;24821;51.988;6.020;2022-11-20T01:03:42;5.73;;;4.33;;
39066;SDS011;24821;51.988;6.020;2022-11-20T01:06:21;4.40;;;4.07;;
39066;SDS011;24821;51.988;6.020;2022-11-20T01:08:47;5.03;;;2.83;;
39066;SDS011;24821;51.988;6.020;2022-11-20T01:11:18;4.37;;;4.00;;
39066;SDS011;24821;51.988;6.020;2022-11-20T01:13:46;2.67;;;2.53;;
39066;SDS011;24821;51.988;6.020;2022-11-20T01:16:23;3.43;;;3.23;;
39066;SDS011;24821;51.988;6.020;2022-11-20T01:18:52;4.13;;;3.83;;
39066;SDS011;24821;51.988;6.020;2022-11-20T01:21:23;5.03;;;4.37;;
39066;SDS011;24821;51.988;6.020;2022-11-20T01:23:53;6.57;;;3.10;;
39066;SDS011;24821;51.988;6.020;2022-11-20T01:26:20;9.47;;;3.97;;
39066;SDS011;24821;51.988;6.020;2022-11-20T01:28:47;2.80;;;2.67;;
39066;SDS011;24821;51.988;6.020;2022-11-20T01:31:18;3.60;;;3.27;;
39066;SDS011;24821;51.988;6.020;2022-11-20T01:33:54;4.63;;;4.30;;
39066;SDS011;24821;51.988;6.020;2022-11-20T01:36:22;3.43;;;3.03;;
39066;SDS011;24821;51.988;6.020;2022-11-20T01:38:54;3.83;;;3.53;;
39066;SDS011;24821;51.988;6.020;2022-11-20T01:41:20;4.37;;;3.83;;
39066;SDS011;24821;51.988;6.020;2022-11-20T01:44:06;4.30;;;3.97;;
39066;SDS011;24821;51.988;6.020;2022-11-20T01:46:35;5.07;;;3.07;;
39066;SDS011;24821;51.988;6.020;2022-11-20T01:51:44;2.60;;;2.40;;
39066;SDS011;24821;51.988;6.020;2022-11-20T01:54:21;3.93;;;3.63;;
39066;SDS011;24821;51.988;6.020;2022-11-20T01:56:53;4.83;;;4.37;;
39066;SDS011;24821;51.988;6.020;2022-11-20T01:59:21;3.57;;;3.27;;
39066;SDS011;24821;51.988;6.020;2022-11-20T02:01:49;3.97;;;3.70;;
39066;SDS011;24821;51.988;6.020;2022-11-20T02:04:14;3.77;;;3.47;;
39066;SDS011;24821;51.988;6.020;2022-11-20T02:06:45;8.87;;;3.63;;
39066;SDS011;24821;51.988;6.020;2022-11-20T02:09:14;4.07;;;3.77;;
39066;SDS011;24821;51.988;6.020;2022-11-20T02:11:40;3.70;;;3.50;;
39066;SDS011;24821;51.988;6.020;2022-11-20T02:14:06;5.17;;;4.80;;
39066;SDS011;24821;51.988;6.020;2022-11-20T02:16:34;4.17;;;3.93;;
39066;SDS011;24821;51.988;6.020;2022-11-20T02:19:04;7.47;;;4.17;;
39066;SDS011;24821;51.988;6.020;2022-11-20T02:24:37;3.77;;;3.47;;
39066;SDS011;24821;51.988;6.020;2022-11-20T02:27:07;12.50;;;3.77;;
39066;SDS011;24821;51.988;6.020;2022-11-20T02:29:46;5.97;;;4.57;;
39066;SDS011;24821;51.988;6.020;2022-11-20T02:32:26;3.83;;;3.53;;
39066;SDS011;24821;51.988;6.020;2022-11-20T02:34:53;4.00;;;3.03;;
39066;SDS011;24821;51.988;6.020;2022-11-20T02:37:19;8.43;;;5.33;;
39066;SDS011;24821;51.988;6.020;2022-11-20T02:39:46;2.93;;;2.73;;
39066;SDS011;24821;51.988;6.020;2022-11-20T02:42:13;3.73;;;3.43;;
39066;SDS011;24821;51.988;6.020;2022-11-20T02:44:39;3.20;;;3.00;;
39066;SDS011;24821;51.988;6.020;2022-11-20T02:47:05;4.87;;;4.47;;
39066;SDS011;24821;51.988;6.020;2022-11-20T02:49:31;4.43;;;4.03;;
39066;SDS011;24821;51.988;6.020;2022-11-20T02:51:56;3.60;;;3.40;;
39066;SDS011;24821;51.988;6.020;2022-11-20T02:54:22;3.50;;;3.20;;
39066;SDS011;24821;51.988;6.020;2022-11-20T02:56:48;4.67;;;4.27;;
39066;SDS011;24821;51.988;6.020;2022-11-20T02:59:14;5.00;;;4.30;;
39066;SDS011;24821;51.988;6.020;2022-11-20T03:01:40;2.50;;;2.40;;
39066;SDS011;24821;51.988;6.020;2022-11-20T03:04:05;4.20;;;3.43;;
39066;SDS011;24821;51.988;6.020;2022-11-20T03:06:31;4.67;;;4.20;;
39066;SDS011;24821;51.988;6.020;2022-11-20T03:08:56;4.17;;;3.87;;
39066;SDS011;24821;51.988;6.020;2022-11-20T03:11:22;2.40;;;2.30;;
39066;SDS011;24821;51.988;6.020;2022-11-20T03:13:48;4.53;;;4.17;;
39066;SDS011;24821;51.988;6.020;2022-11-20T03:16:18;3.87;;;3.57;;
39066;SDS011;24821;51.988;6.020;2022-11-20T03:18:45;4.60;;;4.23;;
39066;SDS011;24821;51.988;6.020;2022-11-20T03:21:12;3.90;;;3.60;;
39066;SDS011;24821;51.988;6.020;2022-11-20T03:23:39;5.23;;;4.70;;
39066;SDS011;24821;51.988;6.020;2022-11-20T03:26:08;4.00;;;3.70;;
39066;SDS011;24821;51.988;6.020;2022-11-20T03:28:39;7.95;;;4.88;;
39066;SDS011;24821;51.988;6.020;2022-11-20T03:31:09;2.73;;;2.63;;
39066;SDS011;24821;51.988;6.020;2022-11-20T03:33:37;3.23;;;3.03;;
39066;SDS011;24821;51.988;6.020;2022-11-20T03:36:04;2.90;;;2.70;;
39066;SDS011;24821;51.988;6.020;2022-11-20T03:38:31;3.03;;;2.83;;
39066;SDS011;24821;51.988;6.020;2022-11-20T03:41:01;3.87;;;3.57;;
39066;SDS011;24821;51.988;6.020;2022-11-20T03:43:28;3.33;;;3.03;;
39066;SDS011;24821;51.988;6.020;2022-11-20T03:45:54;9.57;;;3.97;;
39066;SDS011;24821;51.988;6.020;2022-11-20T03:48:20;3.03;;;2.83;;
39066;SDS011;24821;51.988;6.020;2022-11-20T03:50:45;3.93;;;3.63;;
39066;SDS011;24821;51.988;6.020;2022-11-20T03:53:12;3.90;;;3.63;;
39066;SDS011;24821;51.988;6.020;2022-11-20T03:55:38;6.73;;;3.67;;
39066;SDS011;24821;51.988;6.020;2022-11-20T03:58:04;3.07;;;2.77;;
39066;SDS011;24821;51.988;6.020;2022-11-20T04:00:30;5.17;;;4.77;;
39066;SDS011;24821;51.988;6.020;2022-11-20T04:02:58;4.27;;;3.93;;
39066;SDS011;24821;51.988;6.020;2022-11-20T04:05:25;3.63;;;3.40;;
39066;SDS011;24821;51.988;6.020;2022-11-20T04:07:50;5.73;;;4.13;;
39066;SDS011;24821;51.988;6.020;2022-11-20T04:10:16;3.23;;;3.03;;
39066;SDS011;24821;51.988;6.020;2022-11-20T04:12:42;5.47;;;4.53;;
39066;SDS011;24821;51.988;6.020;2022-11-20T04:15:07;4.10;;;3.80;;
39066;SDS011;24821;51.988;6.020;2022-11-20T04:17:33;4.47;;;4.13;;
39066;SDS011;24821;51.988;6.020;2022-11-20T04:19:59;3.20;;;3.00;;
39066;SDS011;24821;51.988;6.020;2022-11-20T04:22:24;2.33;;;2.13;;
39066;SDS011;24821;51.988;6.020;2022-11-20T04:24:50;4.20;;;3.90;;
39066;SDS011;24821;51.988;6.020;2022-11-20T04:27:15;4.33;;;3.93;;
39066;SDS011;24821;51.988;6.020;2022-11-20T04:29:41;3.47;;;3.13;;
39066;SDS011;24821;51.988;6.020;2022-11-20T04:32:07;3.23;;;3.03;;
39066;SDS011;24821;51.988;6.020;2022-11-20T04:34:32;5.40;;;3.33;;
39066;SDS011;24821;51.988;6.020;2022-11-20T04:36:58;3.17;;;2.77;;
39066;SDS011;24821;51.988;6.020;2022-11-20T04:39:23;5.37;;;3.77;;
39066;SDS011;24821;51.988;6.020;2022-11-20T04:41:49;2.73;;;2.63;;
39066;SDS011;24821;51.988;6.020;2022-11-20T04:44:34;3.40;;;2.97;;
39066;SDS011;24821;51.988;6.020;2022-11-20T04:47:00;6.50;;;4.97;;
39066;SDS011;24821;51.988;6.020;2022-11-20T04:49:25;3.87;;;3.57;;
39066;SDS011;24821;51.988;6.020;2022-11-20T04:51:53;4.47;;;4.17;;
39066;SDS011;24821;51.988;6.020;2022-11-20T04:54:18;3.03;;;2.73;;
39066;SDS011;24821;51.988;6.020;2022-11-20T04:56:47;5.50;;;3.07;;
39066;SDS011;24821;51.988;6.020;2022-11-20T04:59:12;2.60;;;2.40;;
39066;SDS011;24821;51.988;6.020;2022-11-20T05:01:38;3.80;;;3.50;;
39066;SDS011;24821;51.988;6.020;2022-11-20T05:04:04;6.03;;;3.33;;
39066;SDS011;24821;51.988;6.020;2022-11-20T05:06:30;3.93;;;3.63;;
39066;SDS011;24821;51.988;6.020;2022-11-20T05:08:56;5.07;;;4.67;;
39066;SDS011;24821;51.988;6.020;2022-11-20T05:11:22;6.03;;;4.13;;
39066;SDS011;24821;51.988;6.020;2022-11-20T05:13:48;3.80;;;3.50;;
39066;SDS011;24821;51.988;6.020;2022-11-20T05:16:18;3.13;;;2.93;;
39066;SDS011;24821;51.988;6.020;2022-11-20T05:18:45;11.03;;;5.23;;
39066;SDS011;24821;51.988;6.020;2022-11-20T05:21:11;3.50;;;3.30;;
39066;SDS011;24821;51.988;6.020;2022-11-20T05:23:38;3.87;;;3.67;;
39066;SDS011;24821;51.988;6.020;2022-11-20T05:26:04;6.07;;;4.80;;
39066;SDS011;24821;51.988;6.020;2022-11-20T05:28:32;4.40;;;4.00;;
39066;SDS011;24821;51.988;6.020;2022-11-20T05:31:08;3.67;;;3.30;;
39066;SDS011;24821;51.988;6.020;2022-11-20T05:33:35;6.17;;;4.90;;
39066;SDS011;24821;51.988;6.020;2022-11-20T05:36:02;4.17;;;3.87;;
39066;SDS011;24821;51.988;6.020;2022-11-20T05:38:28;7.57;;;4.73;;
39066;SDS011;24821;51.988;6.020;2022-11-20T05:40:54;5.60;;;5.10;;
39066;SDS011;24821;51.988;6.020;2022-11-20T05:43:20;4.97;;;4.57;;
39066;SDS011;24821;51.988;6.020;2022-11-20T05:45:52;6.97;;;4.07;;
39066;SDS011;24821;51.988;6.020;2022-11-20T05:48:19;4.03;;;3.80;;
39066;SDS011;24821;51.988;6.020;2022-11-20T05:50:44;6.30;;;5.70;;
39066;SDS011;24821;51.988;6.020;2022-11-20T05:53:10;6.90;;;6.20;;
39066;SDS011;24821;51.988;6.020;2022-11-20T05:55:35;5.07;;;4.57;;
39066;SDS011;24821;51.988;6.020;2022-11-20T05:58:01;7.03;;;6.20;;
39066;SDS011;24821;51.988;6.020;2022-11-20T06:00:26;5.90;;;4.67;;
39066;SDS011;24821;51.988;6.020;2022-11-20T06:02:52;4.10;;;3.77;;
39066;SDS011;24821;51.988;6.020;2022-11-20T06:05:17;8.27;;;6.47;;
39066;SDS011;24821;51.988;6.020;2022-11-20T06:07:43;9.53;;;4.03;;
39066;SDS011;24821;51.988;6.020;2022-11-20T06:10:08;6.77;;;5.17;;
39066;SDS011;24821;51.988;6.020;2022-11-20T06:12:34;10.10;;;5.67;;
39066;SDS011;24821;51.988;6.020;2022-11-20T06:15:00;7.17;;;4.90;;
39066;SDS011;24821;51.988;6.020;2022-11-20T06:17:26;3.53;;;3.23;;
39066;SDS011;24821;51.988;6.020;2022-11-20T06:19:51;4.70;;;4.37;;
39066;SDS011;24821;51.988;6.020;2022-11-20T06:22:17;4.23;;;3.93;;
39066;SDS011;24821;51.988;6.020;2022-11-20T06:24:42;2.77;;;2.57;;
39066;SDS011;24821;51.988;6.020;2022-11-20T06:27:08;5.00;;;4.50;;
39066;SDS011;24821;51.988;6.020;2022-11-20T06:29:33;4.47;;;3.67;;
39066;SDS011;24821;51.988;6.020;2022-11-20T06:31:59;3.73;;;3.53;;
39066;SDS011;24821;51.988;6.020;2022-11-20T06:34:25;5.90;;;4.93;;
39066;SDS011;24821;51.988;6.020;2022-11-20T06:36:51;6.57;;;4.97;;
39066;SDS011;24821;51.988;6.020;2022-11-20T06:39:16;5.87;;;5.27;;
39066;SDS011;24821;51.988;6.020;2022-11-20T06:41:43;5.47;;;4.97;;
39066;SDS011;24821;51.988;6.020;2022-11-20T06:44:08;4.60;;;4.10;;
39066;SDS011;24821;51.988;6.020;2022-11-20T06:46:34;8.13;;;4.43;;
39066;SDS011;24821;51.988;6.020;2022-11-20T06:48:59;5.67;;;4.07;;
39066;SDS011;24821;51.988;6.020;2022-11-20T06:51:25;5.77;;;5.33;;
39066;SDS011;24821;51.988;6.020;2022-11-20T06:53:51;5.73;;;5.23;;
39066;SDS011;24821;51.988;6.020;2022-11-20T06:56:16;4.87;;;4.47;;
39066;SDS011;24821;51.988;6.020;2022-11-20T06:58:42;5.13;;;4.67;;
39066;SDS011;24821;51.988;6.020;2022-11-20T07:01:11;4.83;;;4.47;;
39066;SDS011;24821;51.988;6.020;2022-11-20T07:03:38;3.50;;;3.20;;
39066;SDS011;24821;51.988;6.020;2022-11-20T07:06:04;5.77;;;5.27;;
39066;SDS011;24821;51.988;6.020;2022-11-20T07:08:30;5.50;;;5.00;;
39066;SDS011;24821;51.988;6.020;2022-11-20T07:10:57;5.20;;;4.77;;
39066;SDS011;24821;51.988;6.020;2022-11-20T07:13:25;8.60;;;5.20;;
39066;SDS011;24821;51.988;6.020;2022-11-20T07:15:51;17.40;;;5.90;;
39066;SDS011;24821;51.988;6.020;2022-11-20T07:18:17;6.90;;;6.17;;
39066;SDS011;24821;51.988;6.020;2022-11-20T07:20:42;5.63;;;5.13;;
39066;SDS011;24821;51.988;6.020;2022-11-20T07:23:08;6.17;;;5.57;;
39066;SDS011;24821;51.988;6.020;2022-11-20T07:25:33;13.73;;;7.03;;
39066;SDS011;24821;51.988;6.020;2022-11-20T07:27:59;6.00;;;5.50;;
39066;SDS011;24821;51.988;6.020;2022-11-20T07:30:26;5.37;;;4.90;;
39066;SDS011;24821;51.988;6.020;2022-11-20T07:32:52;8.13;;;6.90;;
39066;SDS011;24821;51.988;6.020;2022-11-20T07:35:19;7.70;;;5.53;;
39066;SDS011;24821;51.988;6.020;2022-11-20T07:37:45;12.33;;;6.13;;
39066;SDS011;24821;51.988;6.020;2022-11-20T07:40:11;15.93;;;8.07;;
39066;SDS011;24821;51.988;6.020;2022-11-20T07:42:37;5.83;;;5.33;;
39066;SDS011;24821;51.988;6.020;2022-11-20T07:45:03;7.43;;;6.47;;
39066;SDS011;24821;51.988;6.020;2022-11-20T07:47:34;8.70;;;7.13;;
39066;SDS011;24821;51.988;6.020;2022-11-20T07:50:00;19.00;;;8.23;;
39066;SDS011;24821;51.988;6.020;2022-11-20T07:52:26;8.03;;;6.93;;
39066;SDS011;24821;51.988;6.020;2022-11-20T07:54:51;10.90;;;8.03;;
39066;SDS011;24821;51.988;6.020;2022-11-20T07:57:17;8.73;;;7.70;;
39066;SDS011;24821;51.988;6.020;2022-11-20T07:59:42;9.13;;;8.17;;
39066;SDS011;24821;51.988;6.020;2022-11-20T08:02:10;11.87;;;9.63;;
39066;SDS011;24821;51.988;6.020;2022-11-20T08:04:36;13.07;;;6.30;;
39066;SDS011;24821;51.988;6.020;2022-11-20T08:07:01;6.27;;;5.77;;
39066;SDS011;24821;51.988;6.020;2022-11-20T08:09:27;4.03;;;3.73;;
39066;SDS011;24821;51.988;6.020;2022-11-20T08:11:53;9.50;;;7.57;;
39066;SDS011;24821;51.988;6.020;2022-11-20T08:14:38;7.88;;;7.10;;
39066;SDS011;24821;51.988;6.020;2022-11-20T08:17:03;5.97;;;5.47;;
39066;SDS011;24821;51.988;6.020;2022-11-20T08:19:29;9.63;;;7.47;;
39066;SDS011;24821;51.988;6.020;2022-11-20T08:21:54;6.43;;;5.83;;
39066;SDS011;24821;51.988;6.020;2022-11-20T08:24:20;7.17;;;6.53;;
39066;SDS011;24821;51.988;6.020;2022-11-20T08:26:46;7.00;;;6.30;;
39066;SDS011;24821;51.988;6.020;2022-11-20T08:29:11;10.43;;;7.27;;
39066;SDS011;24821;51.988;6.020;2022-11-20T08:31:37;6.93;;;6.27;;
39066;SDS011;24821;51.988;6.020;2022-11-20T08:34:03;5.60;;;4.47;;
39066;SDS011;24821;51.988;6.020;2022-11-20T08:36:29;8.50;;;5.77;;
39066;SDS011;24821;51.988;6.020;2022-11-20T08:38:58;11.13;;;6.67;;
39066;SDS011;24821;51.988;6.020;2022-11-20T08:41:24;6.00;;;5.50;;
39066;SDS011;24821;51.988;6.020;2022-11-20T08:43:56;6.63;;;5.80;;
39066;SDS011;24821;51.988;6.020;2022-11-20T08:46:24;6.90;;;5.70;;
39066;SDS011;24821;51.988;6.020;2022-11-20T08:48:51;8.47;;;6.77;;
39066;SDS011;24821;51.988;6.020;2022-11-20T08:51:17;9.97;;;8.40;;
39066;SDS011;24821;51.988;6.020;2022-11-20T08:53:44;12.63;;;5.27;;
39066;SDS011;24821;51.988;6.020;2022-11-20T08:56:09;6.67;;;6.13;;
39066;SDS011;24821;51.988;6.020;2022-11-20T08:58:36;7.57;;;6.73;;
39066;SDS011;24821;51.988;6.020;2022-11-20T09:01:02;10.73;;;7.13;;
39066;SDS011;24821;51.988;6.020;2022-11-20T09:03:27;8.57;;;7.00;;
39066;SDS011;24821;51.988;6.020;2022-11-20T09:05:57;6.07;;;5.60;;
39066;SDS011;24821;51.988;6.020;2022-11-20T09:08:24;6.73;;;6.07;;
39066;SDS011;24821;51.988;6.020;2022-11-20T09:10:52;6.03;;;5.43;;
39066;SDS011;24821;51.988;6.020;2022-11-20T09:13:19;7.40;;;6.73;;
39066;SDS011;24821;51.988;6.020;2022-11-20T09:15:45;12.50;;;7.97;;
39066;SDS011;24821;51.988;6.020;2022-11-20T09:18:11;14.13;;;8.50;;
39066;SDS011;24821;51.988;6.020;2022-11-20T09:20:37;10.57;;;8.70;;
39066;SDS011;24821;51.988;6.020;2022-11-20T09:23:03;21.37;;;18.10;;
39066;SDS011;24821;51.988;6.020;2022-11-20T09:25:28;13.27;;;10.10;;
39066;SDS011;24821;51.988;6.020;2022-11-20T09:27:55;7.70;;;6.90;;
39066;SDS011;24821;51.988;6.020;2022-11-20T09:30:21;8.07;;;6.67;;
39066;SDS011;24821;51.988;6.020;2022-11-20T09:32:46;9.37;;;7.33;;
39066;SDS011;24821;51.988;6.020;2022-11-20T09:35:12;11.30;;;8.77;;
39066;SDS011;24821;51.988;6.020;2022-11-20T09:37:39;13.00;;;7.23;;
39066;SDS011;24821;51.988;6.020;2022-11-20T09:40:05;10.53;;;9.37;;
39066;SDS011;24821;51.988;6.020;2022-11-20T09:42:40;9.97;;;7.07;;
39066;SDS011;24821;51.988;6.020;2022-11-20T09:45:18;12.77;;;7.60;;
39066;SDS011;24821;51.988;6.020;2022-11-20T09:50:25;6.30;;;5.70;;
39066;SDS011;24821;51.988;6.020;2022-11-20T09:53:13;16.27;;;9.23;;
39066;SDS011;24821;51.988;6.020;2022-11-20T09:56:01;7.90;;;7.23;;
39066;SDS011;24821;51.988;6.020;2022-11-20T09:58:31;7.97;;;7.23;;
39066;SDS011;24821;51.988;6.020;2022-11-20T10:01:15;9.70;;;8.37;;
39066;SDS011;24821;51.988;6.020;2022-11-20T10:04:01;7.97;;;7.20;;
39066;SDS011;24821;51.988;6.020;2022-11-20T10:06:56;9.03;;;8.23;;
39066;SDS011;24821;51.988;6.020;2022-11-20T10:09:33;7.43;;;6.73;;
39066;SDS011;24821;51.988;6.020;2022-11-20T10:14:54;7.13;;;6.53;;
39066;SDS011;24821;51.988;6.020;2022-11-20T10:29:01;8.50;;;7.75;;
39066;SDS011;24821;51.988;6.020;2022-11-20T10:31:33;9.37;;;8.27;;
39066;SDS011;24821;51.988;6.020;2022-11-20T10:34:02;11.00;;;8.57;;
39066;SDS011;24821;51.988;6.020;2022-11-20T10:36:38;8.90;;;8.17;;
39066;SDS011;24821;51.988;6.020;2022-11-20T10:39:51;8.57;;;7.77;;
39066;SDS011;24821;51.988;6.020;2022-11-20T10:42:23;10.73;;;7.63;;
39066;SDS011;24821;51.988;6.020;2022-11-20T10:47:49;12.47;;;8.67;;
39066;SDS011;24821;51.988;6.020;2022-11-20T10:50:17;9.37;;;7.90;;
39066;SDS011;24821;51.988;6.020;2022-11-20T10:58:32;13.47;;;9.40;;
39066;SDS011;24821;51.988;6.020;2022-11-20T11:01:04;8.83;;;8.03;;
39066;SDS011;24821;51.988;6.020;2022-11-20T11:03:51;11.47;;;8.90;;
39066;SDS011;24821;51.988;6.020;2022-11-20T11:06:36;16.90;;;9.20;;
39066;SDS011;24821;51.988;6.020;2022-11-20T11:09:16;11.40;;;9.60;;
39066;SDS011;24821;51.988;6.020;2022-11-20T11:11:47;7.43;;;6.93;;
39066;SDS011;24821;51.988;6.020;2022-11-20T11:14:14;9.33;;;8.10;;
39066;SDS011;24821;51.988;6.020;2022-11-20T11:16:56;11.43;;;10.37;;
39066;SDS011;24821;51.988;6.020;2022-11-20T11:19:23;13.00;;;8.63;;
39066;SDS011;24821;51.988;6.020;2022-11-20T11:21:53;10.87;;;9.77;;
39066;SDS011;24821;51.988;6.020;2022-11-20T11:24:22;11.70;;;10.37;;
39066;SDS011;24821;51.988;6.020;2022-11-20T11:26:55;12.40;;;10.10;;
39066;SDS011;24821;51.988;6.020;2022-11-20T11:29:23;7.33;;;6.63;;
39066;SDS011;24821;51.988;6.020;2022-11-20T11:31:51;7.00;;;6.50;;
39066;SDS011;24821;51.988;6.020;2022-11-20T11:34:29;13.53;;;9.37;;
39066;SDS011;24821;51.988;6.020;2022-11-20T11:36:56;15.77;;;10.97;;
39066;SDS011;24821;51.988;6.020;2022-11-20T11:39:23;18.07;;;11.73;;
39066;SDS011;24821;51.988;6.020;2022-11-20T11:41:50;8.17;;;7.43;;
39066;SDS011;24821;51.988;6.020;2022-11-20T11:44:20;9.70;;;7.57;;
39066;SDS011;24821;51.988;6.020;2022-11-20T11:47:24;9.13;;;8.13;;
39066;SDS011;24821;51.988;6.020;2022-11-20T11:52:43;7.20;;;6.47;;
39066;SDS011;24821;51.988;6.020;2022-11-20T11:55:14;9.23;;;8.40;;
39066;SDS011;24821;51.988;6.020;2022-11-20T12:00:31;12.47;;;9.50;;
39066;SDS011;24821;51.988;6.020;2022-11-20T12:05:45;7.90;;;7.13;;
39066;SDS011;24821;51.988;6.020;2022-11-20T12:08:30;8.80;;;7.90;;
39066;SDS011;24821;51.988;6.020;2022-11-20T12:11:05;8.10;;;7.50;;
39066;SDS011;24821;51.988;6.020;2022-11-20T12:13:47;6.47;;;5.87;;
39066;SDS011;24821;51.988;6.020;2022-11-20T12:16:28;14.53;;;7.70;;
39066;SDS011;24821;51.988;6.020;2022-11-20T12:18:59;5.57;;;5.17;;
39066;SDS011;24821;51.988;6.020;2022-11-20T12:21:31;9.07;;;8.30;;
39066;SDS011;24821;51.988;6.020;2022-11-20T12:27:11;9.77;;;7.00;;
39066;SDS011;24821;51.988;6.020;2022-11-20T12:40:35;12.73;;;9.77;;
39066;SDS011;24821;51.988;6.020;2022-11-20T12:48:53;9.30;;;7.88;;
39066;SDS011;24821;51.988;6.020;2022-11-20T13:02:37;6.77;;;6.07;;
39066;SDS011;24821;51.988;6.020;2022-11-20T13:08:36;16.20;;;8.93;;
39066;SDS011;24821;51.988;6.020;2022-11-20T13:17:04;8.03;;;6.43;;
39066;SDS011;24821;51.988;6.020;2022-11-20T13:19:33;7.77;;;7.10;;
39066;SDS011;24821;51.988;6.020;2022-11-20T13:21:59;7.67;;;7.10;;
39066;SDS011;24821;51.988;6.020;2022-11-20T13:24:26;11.57;;;9.30;;
39066;SDS011;24821;51.988;6.020;2022-11-20T13:29:33;10.07;;;9.07;;
39066;SDS011;24821;51.988;6.020;2022-11-20T13:32:06;7.97;;;7.20;;
39066;SDS011;24821;51.988;6.020;2022-11-20T13:34:55;8.30;;;7.43;;
39066;SDS011;24821;51.988;6.020;2022-11-20T13:37:35;9.50;;;8.57;;
39066;SDS011;24821;51.988;6.020;2022-11-20T13:42:35;12.33;;;8.90;;
39066;SDS011;24821;51.988;6.020;2022-11-20T13:45:09;7.75;;;6.90;;
39066;SDS011;24821;51.988;6.020;2022-11-20T13:47:50;9.30;;;8.50;;
39066;SDS011;24821;51.988;6.020;2022-11-20T13:50:17;9.90;;;8.83;;
39066;SDS011;24821;51.988;6.020;2022-11-20T13:52:50;10.80;;;9.93;;
39066;SDS011;24821;51.988;6.020;2022-11-20T13:55:29;13.10;;;8.80;;
39066;SDS011;24821;51.988;6.020;2022-11-20T14:01:19;9.73;;;8.93;;
39066;SDS011;24821;51.988;6.020;2022-11-20T14:03:48;19.63;;;11.80;;
39066;SDS011;24821;51.988;6.020;2022-11-20T14:06:38;15.50;;;9.20;;
39066;SDS011;24821;51.988;6.020;2022-11-20T14:09:11;13.13;;;9.23;;
39066;SDS011;24821;51.988;6.020;2022-11-20T14:11:45;10.33;;;8.67;;
39066;SDS011;24821;51.988;6.020;2022-11-20T14:14:24;10.60;;;8.60;;
39066;SDS011;24821;51.988;6.020;2022-11-20T14:16:51;10.67;;;9.67;;
39066;SDS011;24821;51.988;6.020;2022-11-20T14:19:36;9.30;;;8.40;;
39066;SDS011;24821;51.988;6.020;2022-11-20T14:22:08;9.37;;;8.53;;
39066;SDS011;24821;51.988;6.020;2022-11-20T14:25:01;14.70;;;9.90;;
39066;SDS011;24821;51.988;6.020;2022-11-20T14:27:32;9.23;;;8.50;;
39066;SDS011;24821;51.988;6.020;2022-11-20T14:30:00;11.47;;;8.57;;
39066;SDS011;24821;51.988;6.020;2022-11-20T14:32:28;6.13;;;5.63;;
39066;SDS011;24821;51.988;6.020;2022-11-20T14:34:55;10.10;;;9.17;;
39066;SDS011;24821;51.988;6.020;2022-11-20T14:37:27;7.10;;;6.60;;
39066;SDS011;24821;51.988;6.020;2022-11-20T14:39:58;12.07;;;9.60;;
39066;SDS011;24821;51.988;6.020;2022-11-20T14:42:24;10.83;;;6.93;;
39066;SDS011;24821;51.988;6.020;2022-11-20T14:44:52;12.07;;;8.70;;
39066;SDS011;24821;51.988;6.020;2022-11-20T14:47:22;7.77;;;7.07;;
39066;SDS011;24821;51.988;6.020;2022-11-20T14:49:54;7.80;;;7.30;;
39066;SDS011;24821;51.988;6.020;2022-11-20T14:52:25;8.10;;;7.50;;
39066;SDS011;24821;51.988;6.020;2022-11-20T14:54:55;11.50;;;8.13;;
39066;SDS011;24821;51.988;6.020;2022-11-20T14:57:26;8.70;;;8.00;;
39066;SDS011;24821;51.988;6.020;2022-11-20T15:00:06;11.00;;;9.90;;
39066;SDS011;24821;51.988;6.020;2022-11-20T15:02:38;10.17;;;8.43;;
39066;SDS011;24821;51.988;6.020;2022-11-20T15:05:07;8.60;;;7.83;;
39066;SDS011;24821;51.988;6.020;2022-11-20T15:07:35;10.00;;;9.10;;
39066;SDS011;24821;51.988;6.020;2022-11-20T15:10:06;10.50;;;8.23;;
39066;SDS011;24821;51.988;6.020;2022-11-20T15:12:37;11.97;;;9.30;;
39066;SDS011;24821;51.988;6.020;2022-11-20T15:15:05;10.40;;;7.27;;
39066;SDS011;24821;51.988;6.020;2022-11-20T15:17:36;7.50;;;7.00;;
39066;SDS011;24821;51.988;6.020;2022-11-20T15:20:03;8.17;;;7.47;;
39066;SDS011;24821;51.988;6.020;2022-11-20T15:22:38;8.73;;;7.83;;
39066;SDS011;24821;51.988;6.020;2022-11-20T15:25:16;8.83;;;7.93;;
39066;SDS011;24821;51.988;6.020;2022-11-20T15:27:43;10.60;;;9.57;;
39066;SDS011;24821;51.988;6.020;2022-11-20T15:30:14;7.93;;;7.23;;
39066;SDS011;24821;51.988;6.020;2022-11-20T15:32:41;8.90;;;8.03;;
39066;SDS011;24821;51.988;6.020;2022-11-20T15:35:07;9.13;;;8.33;;
39066;SDS011;24821;51.988;6.020;2022-11-20T15:37:33;8.07;;;7.37;;
39066;SDS011;24821;51.988;6.020;2022-11-20T15:39:59;17.00;;;11.33;;
39066;SDS011;24821;51.988;6.020;2022-11-20T15:42:24;8.27;;;7.53;;
39066;SDS011;24821;51.988;6.020;2022-11-20T15:44:50;12.50;;;10.43;;
39066;SDS011;24821;51.988;6.020;2022-11-20T15:47:15;14.77;;;10.10;;
39066;SDS011;24821;51.988;6.020;2022-11-20T15:49:42;7.57;;;6.97;;
39066;SDS011;24821;51.988;6.020;2022-11-20T15:52:08;10.53;;;9.50;;
39066;SDS011;24821;51.988;6.020;2022-11-20T15:54:35;15.37;;;8.37;;
39066;SDS011;24821;51.988;6.020;2022-11-20T15:57:00;11.10;;;5.43;;
39066;SDS011;24821;51.988;6.020;2022-11-20T15:59:27;9.07;;;8.17;;
39066;SDS011;24821;51.988;6.020;2022-11-20T16:01:53;9.50;;;8.70;;
39066;SDS011;24821;51.988;6.020;2022-11-20T16:04:18;10.03;;;8.03;;
39066;SDS011;24821;51.988;6.020;2022-11-20T16:06:44;11.03;;;9.70;;
39066;SDS011;24821;51.988;6.020;2022-11-20T16:09:10;12.63;;;9.40;;
39066;SDS011;24821;51.988;6.020;2022-11-20T16:11:35;10.93;;;7.63;;
39066;SDS011;24821;51.988;6.020;2022-11-20T16:14:01;7.90;;;7.20;;
39066;SDS011;24821;51.988;6.020;2022-11-20T16:16:46;7.77;;;7.20;;
39066;SDS011;24821;51.988;6.020;2022-11-20T16:19:12;11.93;;;10.17;;
39066;SDS011;24821;51.988;6.020;2022-11-20T16:21:39;9.37;;;8.30;;